Voinjama Airport

Jump to: basic info | weather | comments

Related pages: nearby airports | nearby navaids | notams | map

Basic information (top)

Codes: VOI GLVA
Location: lon 8.400000, lat -9.767000, elev 1,400 ft / 427 m msl
Status: small_airport
Scheduled airline service: no
Links: Wikipedia Mobile

Weather (top)

Current conditions for Nzerekore Airport 73nm (135km) ESE (rec'd 2014/09/12 09:00Z):

GUNZ 120900Z 00000KT 9999 OVC013 23/22 Q1015 NOSIG

Airport forecast for Lungi International Airport 204nm (378km) W (rec'd 2014/09/30 18:00Z):

TAF GFLL 301600Z 3018/0100 25010KT 8000 TSRA BKN012 FEW026CB 
     FM301900 21008KT 8000 TSRA BKN012 
      TEMPO 3023/0105 18004KT 9000 -TSRA BKN012 PROB30 
      BECMG 0106/0108 12003KT 5000 BR BKN010 FEW027CB 
      TEMPO 0110/0116 24007KT 9999 BKN013 FEW028CB

Latest comments (top)

No comments yet for Voinjama Airport

More... (top)

See also NOTAMs and nearby airports and navaids, or visit the Voinjama Airport page at the main OurAirports website..